Data for 08/10/2014

Time Sea-Level Adjusted Pressure Absolute Pressure Temperature Relative Humidity Dew Point   
(mb) (inHg) (mb) (inHg) (C) (F) (%) (C) (F)
00:05 1024 30.24 854 25.22 18.7 65.7 48 7.6 45.6
00:10 1024 30.24 854 25.22 18.7 65.7 48 7.5 45.5
00:15 1024 30.24 854 25.22 18.6 65.5 48 7.6 45.7
00:20 1024 30.24 854 25.22 18.5 65.4 49 7.7 45.8
00:25 1025 30.27 854 25.22 18.4 65.2 49 7.7 45.8
00:30 1025 30.27 854 25.22 18.4 65 49 7.6 45.7
00:35 1025 30.27 854 25.22 18.4 65.1 49 7.6 45.7
00:40 1025 30.27 854 25.22 18.3 65 50 7.7 45.9
00:45 1025 30.27 854 25.22 18.2 64.8 50 7.7 45.8
00:50 1025 30.27 854 25.22 18.2 64.7 50 7.6 45.7
00:55 1025 30.27 854 25.22 18.2 64.8 50 7.7 45.8
01:00 1025 30.27 854 25.22 18.2 64.7 50 7.7 45.9
01:05 1025 30.27 854 25.22 18.1 64.6 50 7.8 46
01:10 1025 30.27 854 25.22 18 64.4 51 7.8 46
01:15 1025 30.27 854 25.22 17.9 64.3 51 7.8 46.1
01:20 1025 30.27 854 25.22 17.8 64 52 7.8 46
01:25 1025 30.27 854 25.22 17.8 64 52 7.8 46
01:30 1025 30.27 854 25.22 17.8 64 52 7.8 46.1
01:35 1025 30.27 854 25.22 17.7 63.9 52 7.8 46.1
01:40 1025 30.27 854 25.22 17.7 63.9 52 7.8 46.1
01:45 1025 30.27 854 25.22 17.7 63.8 52 7.9 46.1
01:50 1025 30.27 854 25.22 17.5 63.5 53 7.9 46.2
01:55 1025 30.27 854 25.22 17.4 63.3 53 7.9 46.2
02:00 1025 30.27 854 25.22 17.4 63.3 53 7.8 46.1
02:05 1025 30.27 854 25.22 17.4 63.3 53 7.9 46.2
02:10 1025 30.27 854 25.22 17.2 63 54 7.9 46.3
02:15 1025 30.27 854 25.22 17.1 62.9 54 7.9 46.2
02:20 1025 30.27 854 25.22 17.1 62.7 54 7.9 46.2
02:25 1025 30.27 854 25.22 17 62.6 55 8 46.4
02:30 1025 30.27 854 25.22 16.9 62.4 55 7.9 46.3
02:35 1025 30.27 854 25.22 17 62.6 55 7.9 46.2
02:40 1025 30.27 854 25.22 17 62.7 55 8 46.3
02:45 1025 30.27 854 25.22 17 62.5 55 8 46.4
02:50 1025 30.27 854 25.22 16.9 62.4 55 7.9 46.3
02:55 1025 30.27 854 25.22 16.9 62.4 55 8 46.4
03:00 1025 30.27 854 25.22 16.8 62.2 56 8.1 46.5
03:05 1025 30.27 854 25.22 16.6 61.9 56 8 46.4
03:10 1025 30.27 854 25.22 16.6 61.8 56 8 46.3
03:15 1025 30.27 854 25.22 16.6 62 56 8 46.3
03:20 1025 30.27 854 25.22 16.6 61.9 56 8 46.5
03:25 1025 30.27 854 25.22 16.6 61.8 57 8 46.5
03:30 1025 30.27 854 25.22 16.6 61.8 57 8 46.5
03:35 1025 30.27 854 25.22 16.5 61.7 57 8 46.5
03:40 1025 30.27 854 25.22 16.5 61.7 57 8 46.5
03:45 1025 30.27 854 25.22 16.6 61.8 57 8.1 46.5
03:50 1025 30.27 854 25.22 16.6 61.9 57 8 46.5
03:55 1025 30.27 854 25.22 16.7 62.1 56 8.1 46.6
04:00 1025 30.27 854 25.22 16.7 62.1 56 8.1 46.5
04:05 1025 30.27 854 25.22 16.7 62.1 56 8.1 46.6
04:10 1025 30.27 854 25.22 16.6 62 57 8.1 46.6
04:15 1025 30.27 854 25.22 16.6 61.8 57 8.1 46.6
04:20 1025 30.27 854 25.22 16.4 61.5 58 8.2 46.7
04:25 1025 30.27 854 25.22 16.3 61.4 58 8.1 46.6
04:30 1025 30.27 854 25.22 16.3 61.3 58 8.2 46.7
04:35 1025 30.27 854 25.22 16.2 61.1 59 8.2 46.8
04:40 1025 30.27 854 25.22 16 60.9 59 8.2 46.8
04:45 1025 30.27 854 25.22 16 60.8 59 8.1 46.6
04:50 1025 30.27 854 25.22 15.9 60.7 60 8.2 46.8
04:55 1025 30.27 854 25.22 15.9 60.6 60 8.2 46.7
05:00 1025 30.27 854 25.22 15.8 60.5 60 8.2 46.8
05:05 1025 30.27 854 25.22 15.6 60.1 61 8.2 46.7
05:10 1025 30.27 854 25.22 15.5 59.9 61 8.2 46.7
05:15 1025 30.27 855 25.25 15.4 59.7 62 8.2 46.7
05:20 1025 30.27 855 25.25 15.3 59.6 62 8.1 46.6
05:25 1025 30.27 855 25.25 15.2 59.4 62 8 46.3
05:30 1026 30.3 855 25.25 15.1 59.2 62 7.9 46.2
05:35 1026 30.3 855 25.25 15 59 62 7.8 46
05:40 1026 30.3 855 25.25 15.1 59.1 62 7.9 46.2
05:45 1026 30.3 855 25.25 15.1 59.1 62 8 46.4
05:50 1026 30.3 855 25.25 14.9 58.9 63 8 46.3
05:55 1026 30.3 855 25.25 14.8 58.7 63 7.9 46.2
06:00 1026 30.3 855 25.25 14.8 58.6 62 7.7 45.9
06:05 1026 30.3 855 25.25 14.8 58.7 62 7.7 45.9
06:10 1026 30.3 855 25.25 14.9 58.8 62 7.8 46.1
06:15 1026 30.3 855 25.25 15 59 62 7.8 46.1
06:20 1026 30.3 855 25.25 15.1 59.2 62 7.9 46.3
06:25 1026 30.3 855 25.25 15.3 59.5 61 7.9 46.1
06:30 1026 30.3 855 25.25 15.5 59.9 60 8 46.3
06:35 1026 30.3 855 25.25 15.8 60.4 60 8 46.4
06:40 1026 30.3 855 25.25 15.8 60.4 58 7.7 45.8
06:45 1026 30.3 855 25.25 15.7 60.3 58 7.7 45.8
06:50 1026 30.3 855 25.25 15.9 60.5 57 7.5 45.5
06:55 1026 30.3 855 25.25 15.9 60.7 58 7.6 45.7
07:00 1026 30.3 855 25.25 16.2 61.1 55 7.3 45.1
07:05 1026 30.3 856 25.28 16.6 61.9 55 7.6 45.7
07:10 1026 30.3 856 25.28 16.9 62.3 56 8.1 46.6
07:15 1026 30.3 856 25.28 16.8 62.2 56 8 46.4
07:20 1026 30.3 856 25.28 16.9 62.4 55 8 46.3
07:25 1026 30.3 856 25.28 17.2 63 54 8 46.5
07:30 1026 30.3 856 25.28 17.5 63.5 54 8.2 46.8
07:35 1026 30.3 856 25.28 18.1 64.5 53 8.4 47.1
07:40 1027 30.33 856 25.28 18.2 64.8 52 8.3 47
07:45 1026 30.3 856 25.28 18.5 65.3 51 8.2 46.8
07:50 1027 30.33 856 25.28 18.6 65.4 49 7.8 46
07:55 1027 30.33 856 25.28 18.5 65.4 49 7.7 45.9
08:00 1027 30.33 856 25.28 18.5 65.4 49 7.9 46.2
08:05 1027 30.33 856 25.28 18.5 65.3 48 7.5 45.5
08:10 1027 30.33 856 25.28 18.4 65.1 50 7.9 46.2
08:15 1027 30.33 856 25.28 18.7 65.7 49 7.9 46.2
08:20 1027 30.33 856 25.28 19.3 66.8 46 7.6 45.6
08:25 1027 30.33 856 25.28 19.4 67 47 8.1 46.6
08:30 1027 30.33 856 25.28 19.5 67 45 7.4 45.4
08:35 1027 30.33 856 25.28 19.5 67.1 46 7.7 45.8
08:40 1027 30.33 856 25.28 20 67.9 44 7.5 45.5
08:45 1027 30.33 856 25.28 20.4 68.6 44 7.7 45.9
08:50 1027 30.33 856 25.28 21.2 70.2 42 7.8 46
08:55 1027 30.33 856 25.28 21.1 69.9 41 7.6 45.7
09:00 1027 30.33 856 25.28 21.1 69.9 40 7 44.7
09:05 1027 30.33 856 25.28 21.8 71.3 39 7.4 45.3
09:10 1027 30.33 856 25.28 22.2 71.9 38 7.4 45.4
09:15 1027 30.33 856 25.28 22.5 72.4 36 7 44.6
09:20 1027 30.33 856 25.28 22.5 72.5 38 7.7 45.8
09:25 1027 30.33 856 25.28 22.2 71.9 39 7.6 45.7
09:30 1027 30.33 856 25.28 22.5 72.5 37 7.1 44.8
09:35 1026 30.3 856 25.28 22.6 72.7 37 7.6 45.6
09:40 1026 30.3 856 25.28 22.7 72.9 37 7.6 45.7
09:45 1026 30.3 856 25.28 22.9 73.3 37 7.8 46
09:50 1026 30.3 856 25.28 22.7 72.8 36 7 44.6
09:55 1026 30.3 856 25.28 22.7 72.9 38 7.7 45.9
10:00 1026 30.3 856 25.28 22.2 71.9 38 7.4 45.3
10:05 1026 30.3 856 25.28 23.2 73.7 38 8.1 46.5
10:10 1026 30.3 856 25.28 23.5 74.3 34 6.9 44.4
10:15 1026 30.3 856 25.28 23.9 75.1 34 7.1 44.8
10:20 1027 30.33 856 25.28 23.3 73.9 36 7.5 45.5
10:25 1027 30.33 856 25.28 23.5 74.4 34 6.8 44.2
10:30 1026 30.3 856 25.28 24.1 75.3 33 7 44.6
10:35 1026 30.3 856 25.28 24.7 76.5 32 7.1 44.7
10:40 1026 30.3 856 25.28 24.2 75.5 32 6.9 44.4
10:45 1026 30.3 856 25.28 24.1 75.3 32 6.8 44.2
10:50 1026 30.3 856 25.28 24.7 76.5 31 6.8 44.3
10:55 1026 30.3 856 25.28 24.9 76.9 32 7.2 44.9
11:00 1026 30.3 856 25.28 24.9 76.7 29 6.1 42.9
11:05 1026 30.3 855 25.25 24.7 76.5 30 6.4 43.5
11:10 1026 30.3 855 25.25 25.1 77.1 29 6.1 43
11:15 1026 30.3 855 25.25 25.1 77.2 31 7 44.6
11:20 1026 30.3 855 25.25 25 77 30 6.6 43.8
11:25 1026 30.3 855 25.25 25.2 77.3 30 6.4 43.6
11:30 1026 30.3 855 25.25 25.7 78.3 29 6.4 43.5
11:35 1026 30.3 855 25.25 25.9 78.5 29 6.8 44.2
11:40 1026 30.3 855 25.25 25.8 78.5 27 5.7 42.3
11:45 1026 30.3 855 25.25 26.4 79.5 26 5.9 42.5
11:50 1026 30.3 855 25.25 26 78.7 27 5.6 42.1
11:55 1026 30.3 855 25.25 25.7 78.2 26 4.8 40.6
12:00 1026 30.3 855 25.25 26 78.8 26 5 41
12:05 1026 30.3 855 25.25 27.2 80.9 24 5.4 41.8
12:10 1026 30.3 855 25.25 27.5 81.4 24 5.1 41.2
12:15 1026 30.3 855 25.25 27.7 81.8 23 5.2 41.3
12:20 1026 30.3 855 25.25 27.9 82.2 22 4.4 40
12:25 1026 30.3 855 25.25 28 82.4 23 5.1 41.1
12:30 1026 30.3 855 25.25 28.5 83.2 21 4.2 39.6
12:35 1026 30.3 855 25.25 28.5 83.3 22 4.9 40.8
12:40 1026 30.3 855 25.25 27.8 82 23 5.1 41.2
12:45 1026 30.3 855 25.25 27.2 81 23 4.7 40.5
12:50 1026 30.3 855 25.25 27.7 81.8 21 3.7 38.6
12:55 1026 30.3 855 25.25 27.6 81.7 21 3.6 38.5
13:00 1026 30.3 855 25.25 27.1 80.8 23 4.4 40
13:05 1026 30.3 855 25.25 28.1 82.5 19 2.7 36.9
13:10 1025 30.27 855 25.25 29 84.3 18 3 37.4
13:15 1025 30.27 855 25.25 28.9 83.9 18 2.8 37
13:20 1025 30.27 855 25.25 28.8 83.8 20 3.7 38.7
13:25 1025 30.27 855 25.25 28.1 82.5 20 3.1 37.6
13:30 1025 30.27 854 25.22 27.9 82.2 19 2.6 36.6
13:35 1025 30.27 854 25.22 28.4 83.2 18 1.8 35.3
13:40 1025 30.27 854 25.22 28.5 83.4 16 1 33.7
13:45 1025 30.27 854 25.22 29.1 84.4 16 1.1 34
13:50 1025 30.27 854 25.22 28.3 83 17 1.6 34.9
13:55 1025 30.27 854 25.22 28.6 83.4 15 -0.2 31.6
14:00 1025 30.27 854 25.22 29.5 85.1 15 0.7 33.3
14:05 1025 30.27 854 25.22 29 84.2 15 0.5 32.9
14:10 1025 30.27 854 25.22 29 84.3 17 2 35.7
14:15 1025 30.27 854 25.22 29.3 84.7 16 1 33.8
14:20 1025 30.27 854 25.22 29.7 85.4 15 0.9 33.7
14:25 1025 30.27 854 25.22 29.7 85.5 15 1.1 34
14:30 1025 30.27 854 25.22 29.2 84.6 17 1.7 35
14:35 1025 30.27 854 25.22 29 84.2 16 1.3 34.3
14:40 1025 30.27 854 25.22 29.5 85 17 2.2 36
14:45 1025 30.27 854 25.22 29.6 85.3 15 0.8 33.4
14:50 1025 30.27 854 25.22 29.7 85.5 15 0.9 33.6
14:55 1025 30.27 854 25.22 29.4 84.9 16 1.6 34.9
15:00 1025 30.27 854 25.22 29.7 85.5 15 1.1 34
15:05 1025 30.27 854 25.22 29.9 85.9 15 1.3 34.3
15:10 1024 30.24 854 25.22 29.3 84.7 17 2.2 36
15:15 1024 30.24 854 25.22 29.6 85.2 18 3.1 37.6
15:20 1024 30.24 854 25.22 29.6 85.3 16 1.9 35.4
15:25 1024 30.24 854 25.22 29.9 85.8 17 2.6 36.7
15:30 1024 30.24 854 25.22 29.9 85.7 18 3 37.5
15:35 1024 30.24 854 25.22 30 86 15 1.2 34.1
15:40 1024 30.24 853 25.19 30.3 86.6 16 2 35.6
15:45 1024 30.24 853 25.19 30.1 86.2 17 3 37.3
15:50 1024 30.24 853 25.19 30.1 86.3 17 3.1 37.6
15:55 1024 30.24 853 25.19 29.9 85.9 17 2.9 37.3
16:00 1024 30.24 853 25.19 30.1 86.1 17 2.3 36.2
16:05 1024 30.24 853 25.19 30.1 86.3 16 2.3 36.1
16:10 1024 30.24 853 25.19 30.3 86.6 16 2.4 36.4
16:15 1024 30.24 853 25.19 30.2 86.3 17 2.7 36.8
16:20 1024 30.24 853 25.19 29.9 85.9 17 2.9 37.2
16:25 1024 30.24 853 25.19 29.3 84.8 17 2.4 36.4
16:30 1024 30.24 853 25.19 28.9 83.9 18 2.5 36.5
16:35 1024 30.24 853 25.19 29.5 85 18 2.6 36.7
16:40 1024 30.24 853 25.19 29.6 85.2 18 3 37.5
16:45 1024 30.24 853 25.19 28.9 84 18 2.4 36.3
16:50 1024 30.24 853 25.19 28.8 83.8 17 1.6 34.9
16:55 1024 30.24 853 25.19 28.9 84 18 2.3 36.1
17:00 1024 30.24 853 25.19 28.9 84 18 2.2 35.9
17:05 1024 30.24 853 25.19 28.9 84 17 2 35.6
17:10 1024 30.24 853 25.19 29.1 84.4 17 1.6 34.9
17:15 1024 30.24 853 25.19 28.9 84.1 17 2.1 35.8
17:20 1024 30.24 853 25.19 28.8 83.9 17 1.9 35.5
17:25 1024 30.24 853 25.19 28.9 84.1 17 1.7 35.1
17:30 1024 30.24 853 25.19 29 84.1 17 2 35.6
17:35 1024 30.24 853 25.19 28.6 83.4 17 1.6 34.9
17:40 1024 30.24 853 25.19 28.6 83.4 17 1.5 34.8
17:45 1024 30.24 853 25.19 28.8 83.8 16 0.8 33.4
17:50 1024 30.24 853 25.19 28.6 83.4 17 1.5 34.7
17:55 1024 30.24 853 25.19 28.6 83.5 17 1.4 34.4
18:00 1024 30.24 853 25.19 28.4 83.2 18 1.9 35.4
18:05 1024 30.24 853 25.19 28.4 83.1 19 2.6 36.7
18:10 1024 30.24 853 25.19 28.4 83.1 17 1.6 34.9
18:15 1024 30.24 853 25.19 28.3 82.9 19 2.6 36.7
18:20 1024 30.24 853 25.19 28.2 82.8 17 1.3 34.4
18:25 1024 30.24 853 25.19 28 82.4 18 1.6 35
18:30 1024 30.24 853 25.19 28 82.3 17 1.1 34.1
18:35 1024 30.24 853 25.19 28 82.5 17 1.2 34.2
18:40 1024 30.24 853 25.19 28 82.3 17 1.3 34.4
18:45 1024 30.24 853 25.19 27.9 82.2 17 1.1 34.1
18:50 1024 30.24 853 25.19 27.9 82.1 17 0.9 33.6
18:55 1024 30.24 853 25.19 27.8 82 17 1.1 34
19:00 1024 30.24 853 25.19 27.8 82 17 0.8 33.5
19:05 1024 30.24 853 25.19 27.7 81.9 18 1.5 34.7
19:10 1024 30.24 853 25.19 27.6 81.7 19 2.2 36
19:15 1024 30.24 853 25.19 27.3 81.2 25 5.8 42.4
19:20 1024 30.24 853 25.19 26.7 80 28 7.1 44.9
19:25 1024 30.24 853 25.19 25.8 78.4 31 7.8 46.1
19:30 1024 30.24 853 25.19 25.2 77.3 33 7.8 46.1
19:35 1024 30.24 853 25.19 24.6 76.3 32 7.2 45
19:40 1024 30.24 853 25.19 24.1 75.4 35 7.8 46
19:45 1024 30.24 853 25.19 23.9 74.9 35 7.9 46.2
19:50 1024 30.24 853 25.19 23.6 74.4 31 5.6 42.1
19:55 1024 30.24 853 25.19 23.5 74.4 33 6.4 43.5
20:00 1024 30.24 853 25.19 23.5 74.2 32 5.8 42.5
20:05 1024 30.24 853 25.19 23.2 73.8 34 6.5 43.7
20:10 1024 30.24 853 25.19 22.8 73 30 4.4 39.9
20:15 1024 30.24 853 25.19 22.8 73 30 4.4 40
20:20 1024 30.24 853 25.19 22.9 73.1 28 3.4 38
20:25 1024 30.24 853 25.19 22.9 73.2 30 4.8 40.7
20:30 1024 30.24 853 25.19 22.8 73 28 3.7 38.7
20:35 1024 30.24 853 25.19 22.7 72.9 30 4.7 40.4
20:40 1024 30.24 853 25.19 22.1 71.8 31 4.3 39.7
20:45 1024 30.24 853 25.19 21.8 71.2 33 4.8 40.6
20:50 1024 30.24 854 25.22 21.5 70.6 33 4.8 40.6
20:55 1024 30.24 854 25.22 21.4 70.6 34 5.1 41.1
21:00 1024 30.24 854 25.22 21.4 70.4 31 3.7 38.6
21:05 1024 30.24 854 25.22 21.1 70 34 4.9 40.7
21:10 1024 30.24 854 25.22 20.9 69.5 34 4.5 40.1
21:15 1024 30.24 854 25.22 20.6 69 34 4.2 39.6
21:20 1024 30.24 854 25.22 20.2 68.4 34 3.8 38.9
21:25 1025 30.27 854 25.22 20 68 34 3.7 38.6
21:30 1025 30.27 854 25.22 20.2 68.4 32 3.2 37.8
21:35 1025 30.27 854 25.22 20.4 68.7 32 3.2 37.8
21:40 1025 30.27 854 25.22 20.6 69 31 3.1 37.7
21:45 1025 30.27 854 25.22 20.7 69.3 32 3.4 38.1
21:50 1025 30.27 854 25.22 20.5 68.9 32 3.2 37.8
21:55 1025 30.27 854 25.22 20.3 68.5 32 3 37.4
22:00 1025 30.27 854 25.22 20.1 68.2 32 3 37.3
22:05 1025 30.27 854 25.22 20.2 68.4 31 2.6 36.7
22:10 1025 30.27 854 25.22 20.3 68.5 33 3.4 38.2
22:15 1025 30.27 854 25.22 19.8 67.6 34 3.5 38.2
22:20 1025 30.27 854 25.22 19.5 67 32 2.5 36.4
22:25 1025 30.27 854 25.22 19.5 67.1 31 2.3 36.1
22:30 1025 30.27 854 25.22 19.4 66.9 32 2.3 36.1
22:35 1025 30.27 854 25.22 19.2 66.6 33 2.7 36.8
22:40 1025 30.27 854 25.22 18.8 65.9 33 2.3 36.1
22:45 1025 30.27 854 25.22 18.7 65.7 34 2.6 36.6
22:50 1025 30.27 854 25.22 18.7 65.6 32 1.7 35.1
22:55 1025 30.27 854 25.22 18.8 65.9 34 2.7 36.9
23:00 1025 30.27 854 25.22 18.7 65.7 32 2 35.5
23:05 1025 30.27 854 25.22 18.6 65.4 32 1.7 35.1
23:10 1025 30.27 854 25.22 18.6 65.5 30 1 33.9
23:15 1025 30.27 854 25.22 19 66.1 27 -0.1 31.7
23:20 1025 30.27 854 25.22 19.5 67.2 26 -0.6 31
23:25 1025 30.27 854 25.22 20 67.9 25 -0.7 30.7
23:30 1025 30.27 854 25.22 20.2 68.3 24 -0.7 30.8
23:35 1025 30.27 854 25.22 20.2 68.4 24 -0.6 30.9
23:40 1025 30.27 854 25.22 20.3 68.5 24 -0.9 30.4
23:45 1025 30.27 854 25.22 20.3 68.6 24 -0.9 30.4
23:50 1025 30.27 854 25.22 20.2 68.4 24 -0.8 30.6
23:55 1025 30.27 854 25.22 20.3 68.6 25 -0.4 31.3
24:00 1025 30.27 854 25.22 20.4 68.6 25 -0.1 31.9